sensor_id;sensor_type;location;lat;lon;timestamp;temperature;humidity
37874;DHT22;23709;48.078;11.684;2023-04-09T00:00:24;4.30;99.90
37874;DHT22;23709;48.078;11.684;2023-04-09T00:02:57;4.30;99.90
37874;DHT22;23709;48.078;11.684;2023-04-09T00:05:30;4.20;99.90
37874;DHT22;23709;48.078;11.684;2023-04-09T00:08:02;4.10;99.90
37874;DHT22;23709;48.078;11.684;2023-04-09T00:10:34;4.00;99.90
37874;DHT22;23709;48.078;11.684;2023-04-09T00:13:07;4.00;99.90
37874;DHT22;23709;48.078;11.684;2023-04-09T00:15:39;4.00;99.90
37874;DHT22;23709;48.078;11.684;2023-04-09T00:18:12;4.10;99.90
37874;DHT22;23709;48.078;11.684;2023-04-09T00:20:45;4.20;99.90
37874;DHT22;23709;48.078;11.684;2023-04-09T00:23:17;4.20;99.90
37874;DHT22;23709;48.078;11.684;2023-04-09T00:25:49;4.20;99.90
37874;DHT22;23709;48.078;11.684;2023-04-09T00:28:21;4.10;99.90
37874;DHT22;23709;48.078;11.684;2023-04-09T00:30:54;4.10;99.90
37874;DHT22;23709;48.078;11.684;2023-04-09T00:33:26;4.10;99.90
37874;DHT22;23709;48.078;11.684;2023-04-09T00:35:59;4.20;99.90
37874;DHT22;23709;48.078;11.684;2023-04-09T00:38:31;4.20;99.90
37874;DHT22;23709;48.078;11.684;2023-04-09T00:41:03;4.20;99.90
37874;DHT22;23709;48.078;11.684;2023-04-09T00:43:36;4.30;99.90
37874;DHT22;23709;48.078;11.684;2023-04-09T00:46:08;4.30;99.90
37874;DHT22;23709;48.078;11.684;2023-04-09T00:48:40;4.30;99.90
37874;DHT22;23709;48.078;11.684;2023-04-09T00:51:13;4.30;99.90
37874;DHT22;23709;48.078;11.684;2023-04-09T00:53:45;4.30;99.90
37874;DHT22;23709;48.078;11.684;2023-04-09T00:56:20;4.30;99.90
37874;DHT22;23709;48.078;11.684;2023-04-09T00:58:53;4.20;99.90
37874;DHT22;23709;48.078;11.684;2023-04-09T01:01:25;4.20;99.90
37874;DHT22;23709;48.078;11.684;2023-04-09T01:03:57;4.20;99.90
37874;DHT22;23709;48.078;11.684;2023-04-09T01:09:20;4.20;99.90
37874;DHT22;23709;48.078;11.684;2023-04-09T01:12:22;4.10;99.90
37874;DHT22;23709;48.078;11.684;2023-04-09T01:15:07;4.20;99.90
37874;DHT22;23709;48.078;11.684;2023-04-09T01:17:45;4.20;99.90
37874;DHT22;23709;48.078;11.684;2023-04-09T01:20:39;4.20;99.90
37874;DHT22;23709;48.078;11.684;2023-04-09T01:23:17;4.20;99.90
37874;DHT22;23709;48.078;11.684;2023-04-09T01:26:03;4.30;99.90
37874;DHT22;23709;48.078;11.684;2023-04-09T01:28:55;4.30;99.90
37874;DHT22;23709;48.078;11.684;2023-04-09T01:31:34;4.20;99.90
37874;DHT22;23709;48.078;11.684;2023-04-09T01:34:08;4.20;99.90
37874;DHT22;23709;48.078;11.684;2023-04-09T01:36:41;4.20;99.90
37874;DHT22;23709;48.078;11.684;2023-04-09T01:39:16;4.10;99.90
37874;DHT22;23709;48.078;11.684;2023-04-09T01:41:49;4.10;99.90
37874;DHT22;23709;48.078;11.684;2023-04-09T01:44:23;4.00;99.90
37874;DHT22;23709;48.078;11.684;2023-04-09T01:46:57;4.00;99.90
37874;DHT22;23709;48.078;11.684;2023-04-09T01:49:30;4.00;99.90
37874;DHT22;23709;48.078;11.684;2023-04-09T01:52:02;4.10;99.90
37874;DHT22;23709;48.078;11.684;2023-04-09T01:54:35;4.10;99.90
37874;DHT22;23709;48.078;11.684;2023-04-09T01:57:07;4.20;99.90
37874;DHT22;23709;48.078;11.684;2023-04-09T01:59:40;4.20;99.90
37874;DHT22;23709;48.078;11.684;2023-04-09T02:02:17;4.20;99.90
37874;DHT22;23709;48.078;11.684;2023-04-09T02:04:52;4.30;99.90
37874;DHT22;23709;48.078;11.684;2023-04-09T02:10:05;4.20;99.90
37874;DHT22;23709;48.078;11.684;2023-04-09T02:12:43;4.20;99.90
37874;DHT22;23709;48.078;11.684;2023-04-09T02:15:20;4.20;99.90
37874;DHT22;23709;48.078;11.684;2023-04-09T02:17:53;4.20;99.90
37874;DHT22;23709;48.078;11.684;2023-04-09T02:20:26;4.20;99.90
37874;DHT22;23709;48.078;11.684;2023-04-09T02:22:58;4.20;99.90
37874;DHT22;23709;48.078;11.684;2023-04-09T02:25:31;4.10;99.90
37874;DHT22;23709;48.078;11.684;2023-04-09T02:28:03;4.10;99.90
37874;DHT22;23709;48.078;11.684;2023-04-09T02:30:35;4.00;99.90
37874;DHT22;23709;48.078;11.684;2023-04-09T02:33:08;4.00;99.90
37874;DHT22;23709;48.078;11.684;2023-04-09T02:35:40;4.00;99.90
37874;DHT22;23709;48.078;11.684;2023-04-09T02:38:12;4.10;99.90
37874;DHT22;23709;48.078;11.684;2023-04-09T02:40:45;4.10;99.90
37874;DHT22;23709;48.078;11.684;2023-04-09T02:43:17;4.10;99.90
37874;DHT22;23709;48.078;11.684;2023-04-09T02:45:50;4.10;99.90
37874;DHT22;23709;48.078;11.684;2023-04-09T02:48:23;4.10;99.90
37874;DHT22;23709;48.078;11.684;2023-04-09T02:50:55;4.10;99.90
37874;DHT22;23709;48.078;11.684;2023-04-09T02:53:28;4.00;99.90
37874;DHT22;23709;48.078;11.684;2023-04-09T02:56:00;4.00;99.90
37874;DHT22;23709;48.078;11.684;2023-04-09T02:58:32;4.00;99.90
37874;DHT22;23709;48.078;11.684;2023-04-09T03:01:04;4.00;99.90
37874;DHT22;23709;48.078;11.684;2023-04-09T03:03:36;4.00;99.90
37874;DHT22;23709;48.078;11.684;2023-04-09T03:06:11;4.00;99.90
37874;DHT22;23709;48.078;11.684;2023-04-09T03:08:43;4.00;99.90
37874;DHT22;23709;48.078;11.684;2023-04-09T03:11:15;4.00;99.90
37874;DHT22;23709;48.078;11.684;2023-04-09T03:13:48;4.00;99.90
37874;DHT22;23709;48.078;11.684;2023-04-09T03:16:20;4.00;99.90
37874;DHT22;23709;48.078;11.684;2023-04-09T03:18:55;4.10;99.90
37874;DHT22;23709;48.078;11.684;2023-04-09T03:21:27;4.20;99.90
37874;DHT22;23709;48.078;11.684;2023-04-09T03:23:59;4.10;99.90
37874;DHT22;23709;48.078;11.684;2023-04-09T03:26:33;4.10;99.90
37874;DHT22;23709;48.078;11.684;2023-04-09T03:29:10;4.10;99.90
37874;DHT22;23709;48.078;11.684;2023-04-09T03:31:42;4.00;99.90
37874;DHT22;23709;48.078;11.684;2023-04-09T03:34:15;4.10;99.90
37874;DHT22;23709;48.078;11.684;2023-04-09T03:36:48;4.00;99.90
37874;DHT22;23709;48.078;11.684;2023-04-09T03:39:28;4.00;99.90
37874;DHT22;23709;48.078;11.684;2023-04-09T03:42:01;4.00;99.90
37874;DHT22;23709;48.078;11.684;2023-04-09T03:44:44;4.00;99.90
37874;DHT22;23709;48.078;11.684;2023-04-09T03:47:21;3.90;99.90
37874;DHT22;23709;48.078;11.684;2023-04-09T03:49:54;3.90;99.90
37874;DHT22;23709;48.078;11.684;2023-04-09T03:52:30;3.90;99.90
37874;DHT22;23709;48.078;11.684;2023-04-09T03:55:08;3.80;99.90
37874;DHT22;23709;48.078;11.684;2023-04-09T03:57:40;3.70;99.90
37874;DHT22;23709;48.078;11.684;2023-04-09T04:00:17;3.60;99.90
37874;DHT22;23709;48.078;11.684;2023-04-09T04:03:13;3.60;99.90
37874;DHT22;23709;48.078;11.684;2023-04-09T04:06:10;3.50;99.90
37874;DHT22;23709;48.078;11.684;2023-04-09T04:08:57;3.50;99.90
37874;DHT22;23709;48.078;11.684;2023-04-09T04:11:37;3.30;99.90
37874;DHT22;23709;48.078;11.684;2023-04-09T04:14:10;3.20;99.90
37874;DHT22;23709;48.078;11.684;2023-04-09T04:16:45;3.20;99.90
37874;DHT22;23709;48.078;11.684;2023-04-09T04:19:21;3.10;99.90
37874;DHT22;23709;48.078;11.684;2023-04-09T04:21:55;3.00;99.90
37874;DHT22;23709;48.078;11.684;2023-04-09T04:24:27;2.90;99.90
37874;DHT22;23709;48.078;11.684;2023-04-09T04:27:00;2.90;99.90
37874;DHT22;23709;48.078;11.684;2023-04-09T04:29:37;3.00;99.90
37874;DHT22;23709;48.078;11.684;2023-04-09T04:32:23;3.00;99.90
37874;DHT22;23709;48.078;11.684;2023-04-09T04:34:57;3.00;99.90
37874;DHT22;23709;48.078;11.684;2023-04-09T04:37:30;2.90;99.90
37874;DHT22;23709;48.078;11.684;2023-04-09T04:40:07;2.80;99.90
37874;DHT22;23709;48.078;11.684;2023-04-09T04:42:43;2.80;99.90
37874;DHT22;23709;48.078;11.684;2023-04-09T04:45:19;2.90;99.90
37874;DHT22;23709;48.078;11.684;2023-04-09T04:47:55;2.90;99.90
37874;DHT22;23709;48.078;11.684;2023-04-09T04:50:27;3.00;99.90
37874;DHT22;23709;48.078;11.684;2023-04-09T04:53:08;3.10;99.90
37874;DHT22;23709;48.078;11.684;2023-04-09T04:55:48;3.10;99.90
37874;DHT22;23709;48.078;11.684;2023-04-09T04:58:27;3.10;99.90
37874;DHT22;23709;48.078;11.684;2023-04-09T05:01:04;3.20;99.90
37874;DHT22;23709;48.078;11.684;2023-04-09T05:03:37;3.20;99.90
37874;DHT22;23709;48.078;11.684;2023-04-09T05:06:33;3.20;99.90
37874;DHT22;23709;48.078;11.684;2023-04-09T05:09:10;3.20;99.90
37874;DHT22;23709;48.078;11.684;2023-04-09T05:11:49;3.20;99.90
37874;DHT22;23709;48.078;11.684;2023-04-09T05:14:24;3.10;99.90
37874;DHT22;23709;48.078;11.684;2023-04-09T05:16:57;3.10;99.90
37874;DHT22;23709;48.078;11.684;2023-04-09T05:19:36;3.00;99.90
37874;DHT22;23709;48.078;11.684;2023-04-09T05:22:09;3.00;99.90
37874;DHT22;23709;48.078;11.684;2023-04-09T05:24:41;3.00;99.90
37874;DHT22;23709;48.078;11.684;2023-04-09T05:27:14;3.00;99.90
37874;DHT22;23709;48.078;11.684;2023-04-09T05:29:47;3.00;99.90
37874;DHT22;23709;48.078;11.684;2023-04-09T05:32:19;3.00;99.90
37874;DHT22;23709;48.078;11.684;2023-04-09T05:34:52;3.00;99.90
37874;DHT22;23709;48.078;11.684;2023-04-09T05:37:24;3.00;99.90
37874;DHT22;23709;48.078;11.684;2023-04-09T05:39:57;3.10;99.90
37874;DHT22;23709;48.078;11.684;2023-04-09T05:42:29;3.10;99.90
37874;DHT22;23709;48.078;11.684;2023-04-09T05:45:19;3.10;99.90
37874;DHT22;23709;48.078;11.684;2023-04-09T05:47:55;3.00;99.90
37874;DHT22;23709;48.078;11.684;2023-04-09T05:50:28;3.00;99.90
37874;DHT22;23709;48.078;11.684;2023-04-09T05:53:00;3.00;99.90
37874;DHT22;23709;48.078;11.684;2023-04-09T05:55:40;3.10;99.90
37874;DHT22;23709;48.078;11.684;2023-04-09T05:58:14;3.20;99.90
37874;DHT22;23709;48.078;11.684;2023-04-09T06:00:46;3.40;99.90
37874;DHT22;23709;48.078;11.684;2023-04-09T06:03:19;3.50;99.90
37874;DHT22;23709;48.078;11.684;2023-04-09T06:05:52;3.60;99.90
37874;DHT22;23709;48.078;11.684;2023-04-09T06:08:24;3.70;99.90
37874;DHT22;23709;48.078;11.684;2023-04-09T06:10:57;3.80;99.90
37874;DHT22;23709;48.078;11.684;2023-04-09T06:13:29;3.90;99.90
37874;DHT22;23709;48.078;11.684;2023-04-09T06:16:05;4.00;99.90
37874;DHT22;23709;48.078;11.684;2023-04-09T06:18:40;4.20;99.90
37874;DHT22;23709;48.078;11.684;2023-04-09T06:21:13;4.30;99.90
37874;DHT22;23709;48.078;11.684;2023-04-09T06:23:45;4.50;99.90
37874;DHT22;23709;48.078;11.684;2023-04-09T06:26:17;4.60;99.90
37874;DHT22;23709;48.078;11.684;2023-04-09T06:28:50;4.70;99.90
37874;DHT22;23709;48.078;11.684;2023-04-09T06:31:23;4.70;99.90
37874;DHT22;23709;48.078;11.684;2023-04-09T06:33:55;4.80;99.90
37874;DHT22;23709;48.078;11.684;2023-04-09T06:36:28;4.90;99.90
37874;DHT22;23709;48.078;11.684;2023-04-09T06:39:01;5.00;99.90
37874;DHT22;23709;48.078;11.684;2023-04-09T06:41:34;5.20;99.90
37874;DHT22;23709;48.078;11.684;2023-04-09T06:44:14;5.30;99.90
37874;DHT22;23709;48.078;11.684;2023-04-09T06:46:46;5.30;99.90
37874;DHT22;23709;48.078;11.684;2023-04-09T06:49:19;5.30;99.90
37874;DHT22;23709;48.078;11.684;2023-04-09T06:51:51;5.40;99.90
37874;DHT22;23709;48.078;11.684;2023-04-09T06:54:27;5.60;99.90
37874;DHT22;23709;48.078;11.684;2023-04-09T06:56:59;5.70;99.90
37874;DHT22;23709;48.078;11.684;2023-04-09T06:59:31;5.80;99.90
37874;DHT22;23709;48.078;11.684;2023-04-09T07:02:04;6.00;99.90
37874;DHT22;23709;48.078;11.684;2023-04-09T07:04:37;5.90;99.90
37874;DHT22;23709;48.078;11.684;2023-04-09T07:07:10;6.00;99.90
37874;DHT22;23709;48.078;11.684;2023-04-09T07:09:43;6.10;99.90
37874;DHT22;23709;48.078;11.684;2023-04-09T07:12:29;6.20;99.90
37874;DHT22;23709;48.078;11.684;2023-04-09T07:15:04;6.30;99.90
37874;DHT22;23709;48.078;11.684;2023-04-09T07:17:36;6.50;99.90
37874;DHT22;23709;48.078;11.684;2023-04-09T07:20:09;6.60;99.90
37874;DHT22;23709;48.078;11.684;2023-04-09T07:22:41;6.70;99.90
37874;DHT22;23709;48.078;11.684;2023-04-09T07:25:14;6.80;99.90
37874;DHT22;23709;48.078;11.684;2023-04-09T07:27:47;6.90;99.90
37874;DHT22;23709;48.078;11.684;2023-04-09T07:30:19;7.00;99.90
37874;DHT22;23709;48.078;11.684;2023-04-09T07:32:51;7.10;99.90
37874;DHT22;23709;48.078;11.684;2023-04-09T07:35:24;7.20;99.90
37874;DHT22;23709;48.078;11.684;2023-04-09T07:37:56;7.30;99.90
37874;DHT22;23709;48.078;11.684;2023-04-09T07:40:30;7.40;99.90
37874;DHT22;23709;48.078;11.684;2023-04-09T07:43:03;7.60;99.90
37874;DHT22;23709;48.078;11.684;2023-04-09T07:45:36;7.60;99.90
37874;DHT22;23709;48.078;11.684;2023-04-09T07:48:09;7.80;99.90
37874;DHT22;23709;48.078;11.684;2023-04-09T07:50:42;7.90;99.90
37874;DHT22;23709;48.078;11.684;2023-04-09T07:53:16;7.90;99.90
37874;DHT22;23709;48.078;11.684;2023-04-09T07:55:50;7.90;99.90
37874;DHT22;23709;48.078;11.684;2023-04-09T07:58:23;7.80;99.90
37874;DHT22;23709;48.078;11.684;2023-04-09T08:00:55;7.70;99.90
37874;DHT22;23709;48.078;11.684;2023-04-09T08:03:27;7.70;99.90
37874;DHT22;23709;48.078;11.684;2023-04-09T08:06:00;7.90;99.90
37874;DHT22;23709;48.078;11.684;2023-04-09T08:08:32;8.00;99.90
37874;DHT22;23709;48.078;11.684;2023-04-09T08:11:05;7.90;99.90
37874;DHT22;23709;48.078;11.684;2023-04-09T08:13:38;8.00;99.90
37874;DHT22;23709;48.078;11.684;2023-04-09T08:16:10;8.20;99.90
37874;DHT22;23709;48.078;11.684;2023-04-09T08:18:42;8.30;99.90
37874;DHT22;23709;48.078;11.684;2023-04-09T08:21:14;8.30;99.60
37874;DHT22;23709;48.078;11.684;2023-04-09T08:23:47;8.20;99.90
37874;DHT22;23709;48.078;11.684;2023-04-09T08:26:19;8.10;99.90
37874;DHT22;23709;48.078;11.684;2023-04-09T08:28:51;8.20;99.90
37874;DHT22;23709;48.078;11.684;2023-04-09T08:31:24;8.30;99.90
37874;DHT22;23709;48.078;11.684;2023-04-09T08:33:57;8.50;99.90
37874;DHT22;23709;48.078;11.684;2023-04-09T08:36:29;8.50;99.90
37874;DHT22;23709;48.078;11.684;2023-04-09T08:39:02;8.50;99.90
37874;DHT22;23709;48.078;11.684;2023-04-09T08:41:38;8.60;99.20
37874;DHT22;23709;48.078;11.684;2023-04-09T08:44:13;8.70;98.70
37874;DHT22;23709;48.078;11.684;2023-04-09T08:46:45;8.60;98.40
37874;DHT22;23709;48.078;11.684;2023-04-09T08:49:17;8.40;98.80
37874;DHT22;23709;48.078;11.684;2023-04-09T08:51:49;8.30;99.20
37874;DHT22;23709;48.078;11.684;2023-04-09T08:54:22;8.30;99.90
37874;DHT22;23709;48.078;11.684;2023-04-09T08:56:57;8.30;99.00
37874;DHT22;23709;48.078;11.684;2023-04-09T08:59:30;8.30;97.90
37874;DHT22;23709;48.078;11.684;2023-04-09T09:02:09;8.40;97.50
37874;DHT22;23709;48.078;11.684;2023-04-09T09:04:47;8.50;98.10
37874;DHT22;23709;48.078;11.684;2023-04-09T09:07:20;8.40;97.00
37874;DHT22;23709;48.078;11.684;2023-04-09T09:12:43;8.60;97.80
37874;DHT22;23709;48.078;11.684;2023-04-09T09:15:28;8.60;95.80
37874;DHT22;23709;48.078;11.684;2023-04-09T09:18:01;8.70;94.90
37874;DHT22;23709;48.078;11.684;2023-04-09T09:20:33;8.70;94.20
37874;DHT22;23709;48.078;11.684;2023-04-09T09:23:05;8.90;94.90
37874;DHT22;23709;48.078;11.684;2023-04-09T09:25:39;9.10;95.30
37874;DHT22;23709;48.078;11.684;2023-04-09T09:28:12;9.20;95.50
37874;DHT22;23709;48.078;11.684;2023-04-09T09:30:45;9.30;93.90
37874;DHT22;23709;48.078;11.684;2023-04-09T09:33:20;9.30;93.30
37874;DHT22;23709;48.078;11.684;2023-04-09T09:35:53;9.40;92.70
37874;DHT22;23709;48.078;11.684;2023-04-09T09:38:27;9.40;92.40
37874;DHT22;23709;48.078;11.684;2023-04-09T09:41:15;9.40;91.70
37874;DHT22;23709;48.078;11.684;2023-04-09T09:43:50;9.30;91.40
37874;DHT22;23709;48.078;11.684;2023-04-09T09:46:24;9.40;93.00
37874;DHT22;23709;48.078;11.684;2023-04-09T09:48:57;9.50;92.40
37874;DHT22;23709;48.078;11.684;2023-04-09T09:51:31;9.60;92.10
37874;DHT22;23709;48.078;11.684;2023-04-09T09:54:06;9.80;92.60
37874;DHT22;23709;48.078;11.684;2023-04-09T09:56:41;9.90;88.80
37874;DHT22;23709;48.078;11.684;2023-04-09T09:59:26;9.80;87.70
37874;DHT22;23709;48.078;11.684;2023-04-09T10:02:05;9.90;89.00
37874;DHT22;23709;48.078;11.684;2023-04-09T10:04:42;9.80;84.90
37874;DHT22;23709;48.078;11.684;2023-04-09T10:07:15;9.80;87.00
37874;DHT22;23709;48.078;11.684;2023-04-09T10:09:52;9.80;86.80
37874;DHT22;23709;48.078;11.684;2023-04-09T10:12:25;9.80;87.00
37874;DHT22;23709;48.078;11.684;2023-04-09T10:15:00;9.70;86.50
37874;DHT22;23709;48.078;11.684;2023-04-09T10:17:37;9.80;88.20
37874;DHT22;23709;48.078;11.684;2023-04-09T10:22:47;10.00;87.50
37874;DHT22;23709;48.078;11.684;2023-04-09T10:25:21;10.10;86.90
37874;DHT22;23709;48.078;11.684;2023-04-09T10:28:00;10.10;87.50
37874;DHT22;23709;48.078;11.684;2023-04-09T10:30:34;10.20;87.20
37874;DHT22;23709;48.078;11.684;2023-04-09T10:33:08;10.20;86.30
37874;DHT22;23709;48.078;11.684;2023-04-09T10:35:42;10.30;86.60
37874;DHT22;23709;48.078;11.684;2023-04-09T10:41:22;10.30;85.50
37874;DHT22;23709;48.078;11.684;2023-04-09T10:43:56;10.40;86.80
37874;DHT22;23709;48.078;11.684;2023-04-09T10:46:35;10.30;86.10
37874;DHT22;23709;48.078;11.684;2023-04-09T10:49:17;10.20;85.30
37874;DHT22;23709;48.078;11.684;2023-04-09T10:52:10;10.30;84.10
37874;DHT22;23709;48.078;11.684;2023-04-09T10:54:44;10.40;85.40
37874;DHT22;23709;48.078;11.684;2023-04-09T10:57:21;10.40;84.80
37874;DHT22;23709;48.078;11.684;2023-04-09T10:59:54;10.20;83.50
37874;DHT22;23709;48.078;11.684;2023-04-09T11:05:20;10.00;84.70
37874;DHT22;23709;48.078;11.684;2023-04-09T11:08:10;9.80;85.80
37874;DHT22;23709;48.078;11.684;2023-04-09T11:10:44;9.80;87.90
37874;DHT22;23709;48.078;11.684;2023-04-09T11:13:23;9.70;87.60
37874;DHT22;23709;48.078;11.684;2023-04-09T11:15:56;9.40;88.70
37874;DHT22;23709;48.078;11.684;2023-04-09T11:18:29;9.30;89.00
37874;DHT22;23709;48.078;11.684;2023-04-09T11:21:02;9.30;89.60
37874;DHT22;23709;48.078;11.684;2023-04-09T11:23:35;9.20;90.40
37874;DHT22;23709;48.078;11.684;2023-04-09T11:26:08;9.10;90.90
37874;DHT22;23709;48.078;11.684;2023-04-09T11:28:42;9.20;91.00
37874;DHT22;23709;48.078;11.684;2023-04-09T11:31:14;9.20;90.80
37874;DHT22;23709;48.078;11.684;2023-04-09T11:33:50;9.30;90.40
37874;DHT22;23709;48.078;11.684;2023-04-09T11:36:22;9.30;90.70
37874;DHT22;23709;48.078;11.684;2023-04-09T11:38:55;9.30;90.30
37874;DHT22;23709;48.078;11.684;2023-04-09T11:41:35;9.30;90.00
37874;DHT22;23709;48.078;11.684;2023-04-09T11:44:08;9.40;90.60
37874;DHT22;23709;48.078;11.684;2023-04-09T11:46:41;9.50;89.40
37874;DHT22;23709;48.078;11.684;2023-04-09T11:49:13;9.70;89.60
37874;DHT22;23709;48.078;11.684;2023-04-09T11:51:46;9.80;86.90
37874;DHT22;23709;48.078;11.684;2023-04-09T11:54:18;9.80;85.60
37874;DHT22;23709;48.078;11.684;2023-04-09T11:56:51;9.80;86.50
37874;DHT22;23709;48.078;11.684;2023-04-09T11:59:27;9.90;84.60
37874;DHT22;23709;48.078;11.684;2023-04-09T12:02:00;9.90;83.90
37874;DHT22;23709;48.078;11.684;2023-04-09T12:04:33;10.00;84.40
37874;DHT22;23709;48.078;11.684;2023-04-09T12:07:07;10.00;83.40
37874;DHT22;23709;48.078;11.684;2023-04-09T12:09:47;10.10;84.40
37874;DHT22;23709;48.078;11.684;2023-04-09T12:12:23;9.90;85.20
37874;DHT22;23709;48.078;11.684;2023-04-09T12:14:55;9.90;84.90
37874;DHT22;23709;48.078;11.684;2023-04-09T12:17:31;9.90;85.00
37874;DHT22;23709;48.078;11.684;2023-04-09T12:20:05;9.80;82.90
37874;DHT22;23709;48.078;11.684;2023-04-09T12:22:39;9.70;81.50
37874;DHT22;23709;48.078;11.684;2023-04-09T12:25:12;9.70;82.80
37874;DHT22;23709;48.078;11.684;2023-04-09T12:27:44;9.80;82.30
37874;DHT22;23709;48.078;11.684;2023-04-09T12:30:16;9.90;80.30
37874;DHT22;23709;48.078;11.684;2023-04-09T12:32:50;10.00;80.10
37874;DHT22;23709;48.078;11.684;2023-04-09T12:35:23;10.10;79.20
37874;DHT22;23709;48.078;11.684;2023-04-09T12:37:56;10.00;76.40
37874;DHT22;23709;48.078;11.684;2023-04-09T12:40:30;10.00;78.70
37874;DHT22;23709;48.078;11.684;2023-04-09T12:43:03;10.10;78.80
37874;DHT22;23709;48.078;11.684;2023-04-09T12:45:37;10.20;78.50
37874;DHT22;23709;48.078;11.684;2023-04-09T12:48:10;10.40;76.20
37874;DHT22;23709;48.078;11.684;2023-04-09T12:50:42;10.40;77.30
37874;DHT22;23709;48.078;11.684;2023-04-09T12:53:15;10.50;77.80
37874;DHT22;23709;48.078;11.684;2023-04-09T12:55:47;10.60;77.90
37874;DHT22;23709;48.078;11.684;2023-04-09T12:58:19;10.70;77.00
37874;DHT22;23709;48.078;11.684;2023-04-09T13:00:52;10.80;77.50
37874;DHT22;23709;48.078;11.684;2023-04-09T13:03:26;11.00;77.30
37874;DHT22;23709;48.078;11.684;2023-04-09T13:06:00;11.20;74.20
37874;DHT22;23709;48.078;11.684;2023-04-09T13:08:32;11.80;77.10
37874;DHT22;23709;48.078;11.684;2023-04-09T13:11:05;11.90;71.40
37874;DHT22;23709;48.078;11.684;2023-04-09T13:13:37;11.80;72.60
37874;DHT22;23709;48.078;11.684;2023-04-09T13:16:13;11.70;74.20
37874;DHT22;23709;48.078;11.684;2023-04-09T13:18:46;11.60;73.10
37874;DHT22;23709;48.078;11.684;2023-04-09T13:21:19;11.80;74.20
37874;DHT22;23709;48.078;11.684;2023-04-09T13:23:51;11.70;73.10
37874;DHT22;23709;48.078;11.684;2023-04-09T13:26:23;11.40;74.20
37874;DHT22;23709;48.078;11.684;2023-04-09T13:28:56;11.10;75.10
37874;DHT22;23709;48.078;11.684;2023-04-09T13:31:29;10.80;76.90
37874;DHT22;23709;48.078;11.684;2023-04-09T13:34:02;10.80;78.80
37874;DHT22;23709;48.078;11.684;2023-04-09T13:36:34;10.70;78.60
37874;DHT22;23709;48.078;11.684;2023-04-09T13:39:06;10.60;79.20
37874;DHT22;23709;48.078;11.684;2023-04-09T13:41:39;10.60;79.30
37874;DHT22;23709;48.078;11.684;2023-04-09T13:44:11;10.50;78.70
37874;DHT22;23709;48.078;11.684;2023-04-09T13:46:43;10.50;79.30
37874;DHT22;23709;48.078;11.684;2023-04-09T13:49:17;10.60;78.60
37874;DHT22;23709;48.078;11.684;2023-04-09T13:51:49;10.70;79.80
37874;DHT22;23709;48.078;11.684;2023-04-09T13:54:21;10.90;78.20
37874;DHT22;23709;48.078;11.684;2023-04-09T13:56:54;11.70;77.00
37874;DHT22;23709;48.078;11.684;2023-04-09T13:59:26;12.60;73.90
37874;DHT22;23709;48.078;11.684;2023-04-09T14:01:58;12.90;69.70
37874;DHT22;23709;48.078;11.684;2023-04-09T14:04:31;12.90;69.90
37874;DHT22;23709;48.078;11.684;2023-04-09T14:07:10;13.20;68.30
37874;DHT22;23709;48.078;11.684;2023-04-09T14:09:43;13.50;67.80
37874;DHT22;23709;48.078;11.684;2023-04-09T14:12:16;13.50;67.20
37874;DHT22;23709;48.078;11.684;2023-04-09T14:14:48;13.50;67.40
37874;DHT22;23709;48.078;11.684;2023-04-09T14:17:21;13.40;68.70
37874;DHT22;23709;48.078;11.684;2023-04-09T14:19:54;14.00;68.80
37874;DHT22;23709;48.078;11.684;2023-04-09T14:22:27;14.40;65.30
37874;DHT22;23709;48.078;11.684;2023-04-09T14:25:00;14.10;65.60
37874;DHT22;23709;48.078;11.684;2023-04-09T14:27:32;13.80;65.70
37874;DHT22;23709;48.078;11.684;2023-04-09T14:30:04;13.30;68.70
37874;DHT22;23709;48.078;11.684;2023-04-09T14:32:39;13.00;68.90
37874;DHT22;23709;48.078;11.684;2023-04-09T14:35:12;12.50;69.60
37874;DHT22;23709;48.078;11.684;2023-04-09T14:37:44;12.40;69.10
37874;DHT22;23709;48.078;11.684;2023-04-09T14:40:17;12.40;70.50
37874;DHT22;23709;48.078;11.684;2023-04-09T14:42:49;12.50;70.00
37874;DHT22;23709;48.078;11.684;2023-04-09T14:45:22;12.40;70.30
37874;DHT22;23709;48.078;11.684;2023-04-09T14:47:54;12.10;70.00
37874;DHT22;23709;48.078;11.684;2023-04-09T14:50:29;11.80;71.10
37874;DHT22;23709;48.078;11.684;2023-04-09T14:53:02;11.70;72.40
37874;DHT22;23709;48.078;11.684;2023-04-09T14:55:35;11.50;73.10
37874;DHT22;23709;48.078;11.684;2023-04-09T14:58:07;11.40;72.80
37874;DHT22;23709;48.078;11.684;2023-04-09T15:00:39;11.30;73.00
37874;DHT22;23709;48.078;11.684;2023-04-09T15:03:12;11.20;73.90
37874;DHT22;23709;48.078;11.684;2023-04-09T15:05:44;11.10;73.40
37874;DHT22;23709;48.078;11.684;2023-04-09T15:08:17;11.10;73.40
37874;DHT22;23709;48.078;11.684;2023-04-09T15:10:49;11.00;73.90
37874;DHT22;23709;48.078;11.684;2023-04-09T15:13:22;11.10;75.20
37874;DHT22;23709;48.078;11.684;2023-04-09T15:15:55;11.30;73.90
37874;DHT22;23709;48.078;11.684;2023-04-09T15:18:27;11.20;73.70
37874;DHT22;23709;48.078;11.684;2023-04-09T15:20:59;11.10;75.00
37874;DHT22;23709;48.078;11.684;2023-04-09T15:23:32;11.00;75.60
37874;DHT22;23709;48.078;11.684;2023-04-09T15:26:06;11.00;75.10
37874;DHT22;23709;48.078;11.684;2023-04-09T15:28:38;11.00;75.40
37874;DHT22;23709;48.078;11.684;2023-04-09T15:31:11;11.10;74.50
37874;DHT22;23709;48.078;11.684;2023-04-09T15:33:43;11.40;73.40
37874;DHT22;23709;48.078;11.684;2023-04-09T15:36:16;11.40;70.80
37874;DHT22;23709;48.078;11.684;2023-04-09T15:38:50;11.60;69.70
37874;DHT22;23709;48.078;11.684;2023-04-09T15:41:24;11.90;69.60
37874;DHT22;23709;48.078;11.684;2023-04-09T15:43:58;12.00;70.00
37874;DHT22;23709;48.078;11.684;2023-04-09T15:46:30;11.70;71.30
37874;DHT22;23709;48.078;11.684;2023-04-09T15:49:03;11.70;70.70
37874;DHT22;23709;48.078;11.684;2023-04-09T15:51:35;12.00;69.90
37874;DHT22;23709;48.078;11.684;2023-04-09T15:54:08;12.20;69.70
37874;DHT22;23709;48.078;11.684;2023-04-09T15:56:40;12.20;69.10
37874;DHT22;23709;48.078;11.684;2023-04-09T15:59:13;12.10;68.40
37874;DHT22;23709;48.078;11.684;2023-04-09T16:01:45;12.10;68.60
37874;DHT22;23709;48.078;11.684;2023-04-09T16:04:17;12.20;67.20
37874;DHT22;23709;48.078;11.684;2023-04-09T16:06:50;12.20;67.70
37874;DHT22;23709;48.078;11.684;2023-04-09T16:09:22;12.30;67.20
37874;DHT22;23709;48.078;11.684;2023-04-09T16:11:54;12.30;67.40
37874;DHT22;23709;48.078;11.684;2023-04-09T16:14:27;12.40;66.80
37874;DHT22;23709;48.078;11.684;2023-04-09T16:17:00;12.40;66.60
37874;DHT22;23709;48.078;11.684;2023-04-09T16:19:33;12.30;67.80
37874;DHT22;23709;48.078;11.684;2023-04-09T16:22:06;12.20;67.90
37874;DHT22;23709;48.078;11.684;2023-04-09T16:24:39;11.90;69.00
37874;DHT22;23709;48.078;11.684;2023-04-09T16:27:12;11.70;69.10